Togiak, AK

6:52 AM AKST on December 05, 2016 (GMT -0900)
Togiak | | Change Station

Elev 20 ft 59.05 °N, 160.40 °W | Updated 56 minutes ago

Overcast
Overcast
8 °F
Feels Like -8 °F
N
14
Wind Variable Wind from North

Today
High -- | Low -- °F
--% Chance of Precip.
Yesterday
High -- | Low -- °F
Precip. -- in
Pressure 30.22 in
Visibility 10.0 miles
Clouds Overcast 3000 ft
Windchill -8 °F
Dew Point 0 °F
Humidity 70%
Rainfall 0.00 in
Snow Depth Not available.
10:17 AM 4:47 PM
Waxing Crescent, 32% visible
METAR PATG 051456Z AUTO 01012KT 10SM OVC030 M13/M18 A3022 RMK AO2 SLP234 T11331178 56029 FZRANO
Pressure 30.22 in
Visibility 10.0 miles
Clouds Overcast 3000 ft
Windchill -8 °F
Dew Point 0 °F
Humidity 70%
Rainfall 0.00 in
Snow Depth Not available.
10:17 AM 4:47 PM
Waxing Crescent, 32% visible
METAR PATG 051456Z AUTO 01012KT 10SM OVC030 M13/M18 A3022 RMK AO2 SLP234 T11331178 56029 FZRANO

10-Day Weather Forecast

Almanac

Astronomy

Dec. 05, 2016 Rise Set
Actual Time
Civil Twilight
Nautical Twilight
Astronomical Twilight
Moon
Length of Visible Light
Length of Day
Tomorrow will be .
, % of the Moon is Illuminated

Today's Extremes

State Highs State Lows

Community

WunderPhotos

Upload Photos

1,955,794 photos uploaded!

WunderBlog® & News

Nearby

Air Quality

  Air Quality AQ Index Pollutant
Not available.

Snow Depth

Station Depth Elevation

Earthquake Activity

City Distance Mag. Time & Date
Minimum magnitude displayed is 2.5.

Coastal Water Temperatures

Place Temperature

Stations

Nearby Weather Stations

Station Location Temp. Windchill Dew Point Humidity Wind Precip. Elev Updated Type
                   

Watches & Warnings

There are currently no watches in effect.